Veronica B — 5BUT4 — position and weather

sailwx.info

Track history (hours):
 
Tides and Currents Weather Stations Pressure Air Temp Water Temp Dewpoint Dewpoint Depression Visibility Wind Speed Wind Dir Waves Ship Positions

Veronica B

Last reported at 2017-Nov-24 01:59 UTC. Time now 2017-Nov-24 02:08 UTC.
Position N 43°24' W 003°04'.

Length 158 m; draft 7.2 m.

Type: Ship (hazmat cat A). MMSI: 209103000.

Date/timePositionNaut miles runAvg speedWind from/ knotsBaromVisibWave heightAir tempDewpointWater temp
2017-Nov-24 01:59N 43°24' W 003°04'0 0.0
2017-Nov-24 01:29N 43°24' W 003°04'0 0.0
2017-Nov-24 00:59N 43°24' W 003°04'0 0.0
2017-Nov-24 00:29N 43°24' W 003°04'0 0.0
2017-Nov-23 23:59N 43°24' W 003°04'0 0.1
2017-Nov-23 23:29N 43°24' W 003°04'0 0.0
2017-Nov-23 22:59N 43°24' W 003°04'0 0.1
2017-Nov-23 22:29N 43°24' W 003°04'0 0.0
2017-Nov-23 21:56N 43°24' W 003°04'0 0.1
2017-Nov-23 21:29N 43°24' W 003°04'0 0.0
2017-Nov-23 20:59N 43°24' W 003°04'0 0.0
2017-Nov-23 20:29N 43°24' W 003°04'0 0.0
2017-Nov-23 19:59N 43°24' W 003°04'0 0.1
2017-Nov-23 19:29N 43°24' W 003°04'0 0.0
2017-Nov-23 18:59N 43°24' W 003°04'0 0.0
2017-Nov-23 18:29N 43°24' W 003°04'0 0.0
2017-Nov-23 17:59N 43°24' W 003°04'0 0.0
2017-Nov-23 17:29N 43°24' W 003°04'0 0.0
2017-Nov-23 16:59N 43°24' W 003°04'0 0.0
2017-Nov-23 16:29N 43°24' W 003°04'0 0.0
2017-Nov-23 15:59N 43°24' W 003°04'0 0.0
2017-Nov-23 15:29N 43°24' W 003°04'0 0.0
2017-Nov-23 14:59N 43°24' W 003°04'0 0.2
2017-Nov-23 14:23N 43°24' W 003°04'0 0.2
2017-Nov-23 13:59N 43°24' W 003°04'0 0.0
2017-Nov-23 13:29N 43°24' W 003°04'0 0.0
2017-Nov-23 12:59N 43°24' W 003°04'0 0.0
2017-Nov-23 12:29N 43°24' W 003°04'0 0.0
2017-Nov-23 12:00N 43°24' W 003°04'0 0.0
2017-Nov-23 11:30N 43°24' W 003°04'0 0.0
2017-Nov-23 11:00N 43°24' W 003°04'0 0.0
2017-Nov-23 10:30N 43°24' W 003°04'0 0.0
2017-Nov-23 10:00N 43°24' W 003°04'0 0.2
2017-Nov-23 09:30N 43°24' W 003°04'0 0.0
2017-Nov-23 09:00N 43°24' W 003°04'1 1.6
2017-Nov-23 08:30N 43°24' W 003°05'3 6.9
2017-Nov-23 08:00N 43°26' W 003°09'4 7.6
2017-Nov-23 07:30N 43°28' W 003°13'4 7.6
2017-Nov-23 07:00N 43°30' W 003°18'4 7.7
2017-Nov-23 06:30N 43°32' W 003°23'4 8.4
2017-Nov-23 06:00N 43°33' W 003°28'4 8.1
2017-Nov-23 05:30N 43°34' W 003°33'4 7.6
2017-Nov-23 05:00N 43°35' W 003°39'4 7.5
2017-Nov-23 04:30N 43°35' W 003°44'4 8.0
2017-Nov-23 04:00N 43°35' W 003°49'4 7.8
2017-Nov-23 03:30N 43°36' W 003°55'4 7.6
2017-Nov-23 03:00N 43°36' W 003°60'4 7.4
2017-Nov-23 02:30N 43°36' W 004°05'4 7.2
2017-Nov-23 02:00N 43°36' W 004°10'4 7.1
2017-Nov-23 01:30N 43°37' W 004°15'4 7.5
2017-Nov-23 01:00N 43°38' W 004°20'4 7.9
2017-Nov-23 00:30N 43°38' W 004°25'39 9.4
2017-Nov-22 20:20N 43°43' W 005°19'510.2
2017-Nov-22 19:52N 43°44' W 005°26'410.3
2017-Nov-22 19:31N 43°44' W 005°31'  
2017-Nov-18 01:44N 28°58' W 013°32'52 3.3
2017-Nov-17 09:43N 28°09' W 013°54'410.8
2017-Nov-17 09:24N 28°08' W 013°57'2412.5
2017-Nov-17 07:31N 27°59' W 014°22'512.5
2017-Nov-17 07:09N 28°00' W 014°28'212.4
2017-Nov-17 06:59N 28°00' W 014°30'611.9
2017-Nov-17 06:30N 28°01' W 014°36'611.3
2017-Nov-17 06:00N 28°02' W 014°43'611.4
2017-Nov-17 05:30N 28°03' W 014°49'611.8
2017-Nov-17 05:00N 28°03' W 014°56'611.8
2017-Nov-17 04:30N 28°04' W 015°02'611.8
2017-Nov-17 04:00N 28°05' W 015°09'611.7
2017-Nov-17 03:30N 28°06' W 015°15'612.0
2017-Nov-17 03:00N 28°08' W 015°22'3 5.3
2017-Nov-17 02:30N 28°09' W 015°25'0 0.6
2017-Nov-17 02:00N 28°09' W 015°25'0 0.0
2017-Nov-17 01:26N 28°09' W 015°25'0 0.0
2017-Nov-17 00:59N 28°09' W 015°25'0 0.0
2017-Nov-17 00:26N 28°09' W 015°25'0 0.0
2017-Nov-16 23:59N 28°09' W 015°25'0 0.0
2017-Nov-16 23:29N 28°09' W 015°25'0 0.0
2017-Nov-16 22:56N 28°09' W 015°25'0 0.0
2017-Nov-16 22:29N 28°09' W 015°25'0 0.0
2017-Nov-16 21:59N 28°09' W 015°25'0 0.0
2017-Nov-16 21:29N 28°09' W 015°25'0 0.0
2017-Nov-16 20:59N 28°09' W 015°25'0 0.0
2017-Nov-16 20:29N 28°09' W 015°25'0 0.0
2017-Nov-16 19:59N 28°09' W 015°25'0 0.0
2017-Nov-16 19:29N 28°09' W 015°25'0 0.0
2017-Nov-16 18:59N 28°09' W 015°25'0 0.0
2017-Nov-16 18:29N 28°09' W 015°25'0 0.0
2017-Nov-16 17:59N 28°09' W 015°25'0 0.0
2017-Nov-16 17:29N 28°09' W 015°25'0 0.0
2017-Nov-16 16:59N 28°09' W 015°25'0 0.0
2017-Nov-16 16:29N 28°09' W 015°25'0 0.0
2017-Nov-16 15:50N 28°09' W 015°25'0 0.0
2017-Nov-16 15:20N 28°09' W 015°25'0 0.0
2017-Nov-16 14:50N 28°09' W 015°25'0 0.0
2017-Nov-16 14:20N 28°09' W 015°25'0 0.0
2017-Nov-16 13:50N 28°09' W 015°25'0 0.0
2017-Nov-16 13:23N 28°09' W 015°25'0 0.0
2017-Nov-16 12:53N 28°09' W 015°25'0 0.0
2017-Nov-16 12:23N 28°09' W 015°25'0 0.0
2017-Nov-16 11:53N 28°09' W 015°25'0 0.0
2017-Nov-16 11:23N 28°09' W 015°25'0 0.0
2017-Nov-16 10:53N 28°09' W 015°25'0 0.0
2017-Nov-16 10:23N 28°09' W 015°25'0 0.0
2017-Nov-16 09:53N 28°09' W 015°25'0 0.0
2017-Nov-16 09:23N 28°09' W 015°25'0 0.0
2017-Nov-16 08:56N 28°09' W 015°25'0 0.0
2017-Nov-16 08:27N 28°09' W 015°25'0 0.7
2017-Nov-16 08:00N 28°09' W 015°25'2 4.1
2017-Nov-16 07:30N 28°07' W 015°23'611.3
2017-Nov-16 07:01N 28°13' W 015°24'917.7
2017-Nov-16 06:30N 28°14' W 015°34'917.5
2017-Nov-16 06:01N 28°15' W 015°44'917.5
2017-Nov-16 05:31N 28°16' W 015°54'917.2
2017-Nov-16 05:00N 28°21' W 016°02'917.6
2017-Nov-16 04:30N 28°26' W 016°10'5 6.2
2017-Nov-16 03:45N 28°29' W 016°14'6 0.5
2017-Nov-15 15:46N 28°27' W 016°08'517.5
2017-Nov-15 15:30N 28°26' W 016°03'815.5
2017-Nov-15 15:01N 28°28' W 015°54'917.8
2017-Nov-15 14:30N 28°35' W 015°48'917.6
2017-Nov-15 14:00N 28°42' W 015°43'917.5
2017-Nov-15 13:30N 28°50' W 015°38'  
Track history (hours):
 
Tides and Currents Weather Stations Pressure Air Temp Water Temp Dewpoint Dewpoint Depression Visibility Wind Speed Wind Dir Waves Ship Positions

Veronica B

Last reported at 2017-Nov-24 01:59 UTC. Time now 2017-Nov-24 02:08 UTC.
Position N 43°24' W 003°04'.

Length 158 m; draft 7.2 m.

Type: Ship (hazmat cat A). MMSI: 209103000.

Date/timePositionNaut miles runAvg speedWind from/ knotsBaromVisibWave heightAir tempDewpointWater temp
2017-Nov-24 01:59N 43°24' W 003°04'0 0.0
2017-Nov-24 01:29N 43°24' W 003°04'0 0.0
2017-Nov-24 00:59N 43°24' W 003°04'0 0.0
2017-Nov-24 00:29N 43°24' W 003°04'0 0.0
2017-Nov-23 23:59N 43°24' W 003°04'0 0.1
2017-Nov-23 23:29N 43°24' W 003°04'0 0.0
2017-Nov-23 22:59N 43°24' W 003°04'0 0.1
2017-Nov-23 22:29N 43°24' W 003°04'0 0.0
2017-Nov-23 21:56N 43°24' W 003°04'0 0.1
2017-Nov-23 21:29N 43°24' W 003°04'0 0.0
2017-Nov-23 20:59N 43°24' W 003°04'0 0.0
2017-Nov-23 20:29N 43°24' W 003°04'0 0.0
2017-Nov-23 19:59N 43°24' W 003°04'0 0.1
2017-Nov-23 19:29N 43°24' W 003°04'0 0.0
2017-Nov-23 18:59N 43°24' W 003°04'0 0.0
2017-Nov-23 18:29N 43°24' W 003°04'0 0.0
2017-Nov-23 17:59N 43°24' W 003°04'0 0.0
2017-Nov-23 17:29N 43°24' W 003°04'0 0.0
2017-Nov-23 16:59N 43°24' W 003°04'0 0.0
2017-Nov-23 16:29N 43°24' W 003°04'0 0.0
2017-Nov-23 15:59N 43°24' W 003°04'0 0.0
2017-Nov-23 15:29N 43°24' W 003°04'0 0.0
2017-Nov-23 14:59N 43°24' W 003°04'0 0.2
2017-Nov-23 14:23N 43°24' W 003°04'0 0.2
2017-Nov-23 13:59N 43°24' W 003°04'0 0.0
2017-Nov-23 13:29N 43°24' W 003°04'0 0.0
2017-Nov-23 12:59N 43°24' W 003°04'0 0.0
2017-Nov-23 12:29N 43°24' W 003°04'0 0.0
2017-Nov-23 12:00N 43°24' W 003°04'0 0.0
2017-Nov-23 11:30N 43°24' W 003°04'0 0.0
2017-Nov-23 11:00N 43°24' W 003°04'0 0.0
2017-Nov-23 10:30N 43°24' W 003°04'0 0.0
2017-Nov-23 10:00N 43°24' W 003°04'0 0.2
2017-Nov-23 09:30N 43°24' W 003°04'0 0.0
2017-Nov-23 09:00N 43°24' W 003°04'1 1.6
2017-Nov-23 08:30N 43°24' W 003°05'3 6.9
2017-Nov-23 08:00N 43°26' W 003°09'4 7.6
2017-Nov-23 07:30N 43°28' W 003°13'4 7.6
2017-Nov-23 07:00N 43°30' W 003°18'4 7.7
2017-Nov-23 06:30N 43°32' W 003°23'4 8.4
2017-Nov-23 06:00N 43°33' W 003°28'4 8.1
2017-Nov-23 05:30N 43°34' W 003°33'4 7.6
2017-Nov-23 05:00N 43°35' W 003°39'4 7.5
2017-Nov-23 04:30N 43°35' W 003°44'4 8.0
2017-Nov-23 04:00N 43°35' W 003°49'4 7.8
2017-Nov-23 03:30N 43°36' W 003°55'4 7.6
2017-Nov-23 03:00N 43°36' W 003°60'4 7.4
2017-Nov-23 02:30N 43°36' W 004°05'4 7.2
2017-Nov-23 02:00N 43°36' W 004°10'4 7.1
2017-Nov-23 01:30N 43°37' W 004°15'4 7.5
2017-Nov-23 01:00N 43°38' W 004°20'4 7.9
2017-Nov-23 00:30N 43°38' W 004°25'39 9.4
2017-Nov-22 20:20N 43°43' W 005°19'510.2
2017-Nov-22 19:52N 43°44' W 005°26'410.3
2017-Nov-22 19:31N 43°44' W 005°31'  
2017-Nov-18 01:44N 28°58' W 013°32'52 3.3
2017-Nov-17 09:43N 28°09' W 013°54'410.8
2017-Nov-17 09:24N 28°08' W 013°57'2412.5
2017-Nov-17 07:31N 27°59' W 014°22'512.5
2017-Nov-17 07:09N 28°00' W 014°28'212.4
2017-Nov-17 06:59N 28°00' W 014°30'611.9
2017-Nov-17 06:30N 28°01' W 014°36'611.3
2017-Nov-17 06:00N 28°02' W 014°43'611.4
2017-Nov-17 05:30N 28°03' W 014°49'611.8
2017-Nov-17 05:00N 28°03' W 014°56'611.8
2017-Nov-17 04:30N 28°04' W 015°02'611.8
2017-Nov-17 04:00N 28°05' W 015°09'611.7
2017-Nov-17 03:30N 28°06' W 015°15'612.0
2017-Nov-17 03:00N 28°08' W 015°22'3 5.3
2017-Nov-17 02:30N 28°09' W 015°25'0 0.6
2017-Nov-17 02:00N 28°09' W 015°25'0 0.0
2017-Nov-17 01:26N 28°09' W 015°25'0 0.0
2017-Nov-17 00:59N 28°09' W 015°25'0 0.0
2017-Nov-17 00:26N 28°09' W 015°25'0 0.0
2017-Nov-16 23:59N 28°09' W 015°25'0 0.0
2017-Nov-16 23:29N 28°09' W 015°25'0 0.0
2017-Nov-16 22:56N 28°09' W 015°25'0 0.0
2017-Nov-16 22:29N 28°09' W 015°25'0 0.0
2017-Nov-16 21:59N 28°09' W 015°25'0 0.0
2017-Nov-16 21:29N 28°09' W 015°25'0 0.0
2017-Nov-16 20:59N 28°09' W 015°25'0 0.0
2017-Nov-16 20:29N 28°09' W 015°25'0 0.0
2017-Nov-16 19:59N 28°09' W 015°25'0 0.0
2017-Nov-16 19:29N 28°09' W 015°25'0 0.0
2017-Nov-16 18:59N 28°09' W 015°25'0 0.0
2017-Nov-16 18:29N 28°09' W 015°25'0 0.0
2017-Nov-16 17:59N 28°09' W 015°25'0 0.0
2017-Nov-16 17:29N 28°09' W 015°25'0 0.0
2017-Nov-16 16:59N 28°09' W 015°25'0 0.0
2017-Nov-16 16:29N 28°09' W 015°25'0 0.0
2017-Nov-16 15:50N 28°09' W 015°25'0 0.0
2017-Nov-16 15:20N 28°09' W 015°25'0 0.0
2017-Nov-16 14:50N 28°09' W 015°25'0 0.0
2017-Nov-16 14:20N 28°09' W 015°25'0 0.0
2017-Nov-16 13:50N 28°09' W 015°25'0 0.0
2017-Nov-16 13:23N 28°09' W 015°25'0 0.0
2017-Nov-16 12:53N 28°09' W 015°25'0 0.0
2017-Nov-16 12:23N 28°09' W 015°25'0 0.0
2017-Nov-16 11:53N 28°09' W 015°25'0 0.0
2017-Nov-16 11:23N 28°09' W 015°25'0 0.0
2017-Nov-16 10:53N 28°09' W 015°25'0 0.0
2017-Nov-16 10:23N 28°09' W 015°25'0 0.0
2017-Nov-16 09:53N 28°09' W 015°25'0 0.0
2017-Nov-16 09:23N 28°09' W 015°25'0 0.0
2017-Nov-16 08:56N 28°09' W 015°25'0 0.0
2017-Nov-16 08:27N 28°09' W 015°25'0 0.7
2017-Nov-16 08:00N 28°09' W 015°25'2 4.1
2017-Nov-16 07:30N 28°07' W 015°23'611.3
2017-Nov-16 07:01N 28°13' W 015°24'917.7
2017-Nov-16 06:30N 28°14' W 015°34'917.5
2017-Nov-16 06:01N 28°15' W 015°44'917.5
2017-Nov-16 05:31N 28°16' W 015°54'917.2
2017-Nov-16 05:00N 28°21' W 016°02'917.6
2017-Nov-16 04:30N 28°26' W 016°10'5 6.2
2017-Nov-16 03:45N 28°29' W 016°14'6 0.5
2017-Nov-15 15:46N 28°27' W 016°08'517.5
2017-Nov-15 15:30N 28°26' W 016°03'815.5
2017-Nov-15 15:01N 28°28' W 015°54'917.8
2017-Nov-15 14:30N 28°35' W 015°48'917.6
2017-Nov-15 14:00N 28°42' W 015°43'917.5
2017-Nov-15 13:30N 28°50' W 015°38'  

Dump ship's entire track history